Time;durP1;ratioP1;P1;durP2;ratioP2;P2;SDS_P1;SDS_P2;PMS_P1;PMS_P2;Temp;Humidity;BMP_temperature;BMP_pressure;BME280_temperature;BME280_humidity;BME280_pressure;Samples;Min_cycle;Max_cycle;Signal;HPM_P1;HPM_P2
2022/10/27 00:02:12;;;;;;;9.85;3.03;;;;;;;13.46;100.00;102063.56;5094544;28;20052;-53
2022/10/27 00:04:37;;;;;;;11.63;2.97;;;;;;;13.44;100.00;102054.81;5094868;28;20107;-51
2022/10/27 00:07:02;;;;;;;7.88;2.95;;;;;;;13.45;100.00;102061.00;5085507;28;20549;-53
2022/10/27 00:09:28;;;;;;;6.07;3.00;;;;;;;13.41;100.00;102056.84;5094929;28;20027;-54
2022/10/27 00:11:55;;;;;;;10.60;3.60;;;;;;;13.40;100.00;102058.63;5094598;28;20704;-53
2022/10/27 00:14:20;;;;;;;7.55;3.35;;;;;;;13.39;100.00;102062.28;5094617;28;20020;-51
2022/10/27 00:16:52;;;;;;;9.68;3.15;;;;;;;13.38;100.00;102068.56;5092143;28;20077;-52
2022/10/27 00:19:17;;;;;;;9.25;3.53;;;;;;;13.37;100.00;102066.00;5094990;28;20035;-50
2022/10/27 00:21:43;;;;;;;7.35;3.03;;;;;;;13.35;100.00;102059.94;5087637;28;20382;-54
2022/10/27 00:24:08;;;;;;;8.18;3.30;;;;;;;13.32;100.00;102063.63;5094446;28;20027;-52
2022/10/27 00:26:33;;;;;;;9.37;3.20;;;;;;;13.32;100.00;102071.66;5094326;28;20027;-50
2022/10/27 00:28:58;;;;;;;7.55;3.08;;;;;;;13.32;100.00;102069.84;5091964;28;20612;-53
2022/10/27 00:31:24;;;;;;;5.60;2.90;;;;;;;13.30;100.00;102071.72;5076142;28;20024;-53
2022/10/27 00:33:50;;;;;;;12.63;3.40;;;;;;;13.28;100.00;102072.81;5094255;28;20281;-53
2022/10/27 00:36:18;;;;;;;7.45;3.08;;;;;;;13.24;100.00;102074.81;5094515;28;20024;-52
2022/10/27 00:38:43;;;;;;;9.48;3.03;;;;;;;13.23;100.00;102075.78;5089053;28;20410;-52
2022/10/27 00:41:23;;;;;;;5.35;2.90;;;;;;;13.26;100.00;102072.91;5090275;28;20016;-53
2022/10/27 00:43:48;;;;;;;9.68;3.15;;;;;;;13.25;100.00;102078.34;5094140;28;20489;-52
2022/10/27 00:46:29;;;;;;;11.48;3.10;;;;;;;13.26;100.00;102083.56;5080552;28;20036;-53
2022/10/27 00:48:59;;;;;;;6.63;2.85;;;;;;;13.23;100.00;102082.94;5086414;28;20040;-52
2022/10/27 00:51:25;;;;;;;9.23;3.00;;;;;;;13.22;100.00;102081.22;5088041;28;20036;-53
2022/10/27 00:53:51;;;;;;;8.95;3.35;;;;;;;13.21;100.00;102087.53;5087725;28;20069;-53
2022/10/27 00:56:17;;;;;;;11.73;2.97;;;;;;;13.21;100.00;102080.38;5093744;28;20032;-53
2022/10/27 00:58:44;;;;;;;8.48;3.30;;;;;;;13.23;100.00;102082.94;5094035;28;20154;-53
2022/10/27 01:01:10;;;;;;;11.13;3.30;;;;;;;13.22;100.00;102086.56;5084769;28;20119;-54
2022/10/27 01:03:36;;;;;;;8.32;2.78;;;;;;;13.22;100.00;102084.75;5090457;28;20031;-54
2022/10/27 01:06:02;;;;;;;5.25;2.80;;;;;;;13.21;100.00;102083.03;5093453;28;20024;-52
2022/10/27 01:08:28;;;;;;;6.90;2.75;;;;;;;13.24;100.00;102087.28;5093684;28;20027;-53
2022/10/27 01:10:53;;;;;;;8.43;3.08;;;;;;;13.24;100.00;102080.16;5092173;28;20052;-53
2022/10/27 01:13:19;;;;;;;10.10;3.10;;;;;;;13.25;100.00;102089.00;5084800;28;20119;-51
2022/10/27 01:16:07;;;;;;;6.88;3.10;;;;;;;13.27;100.00;102089.75;5093368;28;20381;-54
2022/10/27 01:19:07;;;;;;;7.10;3.00;;;;;;;13.28;100.00;102091.47;5091395;28;20024;-50
2022/10/27 01:21:51;;;;;;;6.38;3.10;;;;;;;13.29;100.00;102093.19;5080433;28;20032;-52
2022/10/27 01:24:47;;;;;;;10.38;3.10;;;;;;;13.32;100.00;102095.66;5093392;28;20028;-51
2022/10/27 01:27:46;;;;;;;9.73;3.13;;;;;;;13.32;100.00;102099.22;5072076;28;20020;-54
2022/10/27 01:30:17;;;;;;;8.35;3.10;;;;;;;13.33;100.00;102086.72;5093481;28;20032;-50
2022/10/27 01:33:23;;;;;;;8.93;3.10;;;;;;;13.36;100.00;102091.00;5092871;28;20131;-53
2022/10/27 01:36:00;;;;;;;7.50;3.35;;;;;;;13.36;100.00;102091.84;5009970;28;20056;-53
2022/10/27 01:38:28;;;;;;;7.38;3.00;;;;;;;13.36;100.00;102094.50;4998348;28;20037;-50
2022/10/27 01:41:13;;;;;;;11.38;3.55;;;;;;;13.36;100.00;102099.84;5058419;28;20086;-51
2022/10/27 01:43:39;;;;;;;10.63;3.47;;;;;;;13.39;100.00;102099.66;5090433;28;20054;-51
2022/10/27 01:46:07;;;;;;;8.18;3.03;;;;;;;13.39;100.00;102099.66;5089747;28;20027;-51
2022/10/27 01:48:35;;;;;;;9.32;3.38;;;;;;;13.41;100.00;102094.19;5087166;28;20021;-51
2022/10/27 01:51:01;;;;;;;8.68;3.45;;;;;;;13.43;100.00;102097.63;5090420;28;20036;-51
2022/10/27 01:53:29;;;;;;;7.45;3.10;;;;;;;13.43;100.00;102094.94;5088662;28;20032;-53
2022/10/27 01:56:04;;;;;;;7.53;2.97;;;;;;;13.46;100.00;102092.06;5090402;28;20062;-53
2022/10/27 01:58:38;;;;;;;7.05;3.17;;;;;;;13.47;100.00;102093.75;5092762;28;20285;-52
2022/10/27 02:01:12;;;;;;;7.45;3.00;;;;;;;13.47;100.00;102093.75;5080600;28;20032;-53
2022/10/27 02:04:04;;;;;;;9.95;3.53;;;;;;;13.47;100.00;102094.63;5079158;28;20034;-52
2022/10/27 02:06:49;;;;;;;8.40;3.10;;;;;;;13.48;100.00;102085.66;5092906;28;20112;-52
2022/10/27 02:09:26;;;;;;;7.90;3.05;;;;;;;13.46;100.00;102079.56;5092828;28;20473;-52
2022/10/27 02:11:53;;;;;;;9.00;3.58;;;;;;;13.46;100.00;102079.56;5092539;28;20019;-54
2022/10/27 02:14:19;;;;;;;11.95;3.47;;;;;;;13.47;100.00;102083.09;5083539;28;20470;-50
2022/10/27 02:16:50;;;;;;;8.75;3.45;;;;;;;13.45;100.00;102085.84;5092281;28;20474;-51
2022/10/27 02:19:24;;;;;;;8.43;2.90;;;;;;;13.43;100.00;102079.78;5083367;28;20399;-52
2022/10/27 02:21:53;;;;;;;11.63;3.33;;;;;;;13.43;100.00;102085.13;5092065;28;20042;-54
2022/10/27 02:24:19;;;;;;;;;;;;;;;13.49;100.00;102079.34;5093114;28;20028;-53
2022/10/27 02:26:50;;;;;;;8.27;3.70;;;;;;;13.44;100.00;102068.16;5088367;28;20293;-54
2022/10/27 02:29:34;;;;;;;13.82;3.53;;;;;;;13.42;100.00;102074.53;5091682;28;20032;-51
2022/10/27 02:32:03;;;;;;;10.13;3.42;;;;;;;13.40;100.00;102073.81;5090687;28;20032;-50
2022/10/27 02:34:30;;;;;;;6.32;3.17;;;;;;;13.40;100.00;102076.47;5086392;28;20102;-52
2022/10/27 02:36:56;;;;;;;5.95;3.30;;;;;;;13.37;100.00;102077.53;5078980;28;20032;-54
2022/10/27 02:39:21;;;;;;;10.88;3.55;;;;;;;13.37;100.00;102079.34;5086387;28;20035;-52
2022/10/27 02:41:47;;;;;;;10.15;3.95;;;;;;;13.36;100.00;102073.16;5092167;28;20382;-49
2022/10/27 02:44:12;;;;;;;11.48;3.72;;;;;;;13.36;100.00;102081.16;5092115;28;20471;-51
2022/10/27 02:46:37;;;;;;;11.80;3.93;;;;;;;13.32;100.00;102075.19;5092181;28;20062;-52
2022/10/27 02:49:03;;;;;;;9.38;3.30;;;;;;;13.30;100.00;102069.06;5085925;28;20306;-52
2022/10/27 02:51:28;;;;;;;9.65;3.78;;;;;;;13.29;100.00;102062.03;5092050;28;20112;-52
2022/10/27 02:53:53;;;;;;;8.23;3.17;;;;;;;13.28;100.00;102064.78;5090186;28;20031;-53
2022/10/27 02:56:19;;;;;;;10.77;3.33;;;;;;;13.27;100.00;102063.94;5079170;28;20493;-53
2022/10/27 02:58:44;;;;;;;8.10;2.92;;;;;;;13.26;100.00;102059.56;5079463;28;20028;-53
2022/10/27 03:01:09;;;;;;;9.85;3.72;;;;;;;13.25;100.00;102059.66;5091971;28;20093;-54
2022/10/27 03:03:34;;;;;;;7.03;3.15;;;;;;;13.22;100.00;102055.41;5073900;28;20051;-53
2022/10/27 03:06:00;;;;;;;9.25;3.25;;;;;;;13.23;100.00;102054.44;5089878;28;20107;-49
2022/10/27 03:08:25;;;;;;;8.00;3.70;;;;;;;13.22;100.00;102043.88;5091941;28;20031;-52
2022/10/27 03:10:50;;;;;;;7.13;3.33;;;;;;;13.20;100.00;102043.97;5091792;28;20107;-52
2022/10/27 03:13:15;;;;;;;8.40;2.90;;;;;;;13.18;100.00;102037.88;5083096;28;20119;-51
2022/10/27 03:15:43;;;;;;;13.95;3.30;;;;;;;13.19;100.00;102044.06;5089587;28;20028;-54
2022/10/27 03:18:09;;;;;;;6.93;3.22;;;;;;;13.16;100.00;102041.63;5072768;28;20025;-50
2022/10/27 03:20:34;;;;;;;12.30;3.47;;;;;;;13.14;100.00;102037.25;5082942;28;20039;-54
2022/10/27 03:22:59;;;;;;;7.00;3.57;;;;;;;13.14;100.00;102037.25;5092013;28;20028;-53
2022/10/27 03:25:24;;;;;;;7.55;3.33;;;;;;;13.12;100.00;102030.28;5091693;28;20751;-52
2022/10/27 03:27:50;;;;;;;7.18;3.30;;;;;;;13.11;100.00;102023.28;5090074;28;20104;-53
2022/10/27 03:30:16;;;;;;;10.27;3.43;;;;;;;13.11;100.00;102026.78;5090509;28;20389;-53
2022/10/27 03:32:49;;;;;;;8.35;3.33;;;;;;;13.10;100.00;102027.72;5083182;28;20294;-53
2022/10/27 03:35:16;;;;;;;9.90;3.70;;;;;;;13.09;100.00;102031.38;5091574;28;20028;-52
2022/10/27 03:37:41;;;;;;;8.23;3.08;;;;;;;13.09;100.00;102030.50;5091506;28;20038;-51
2022/10/27 03:40:07;;;;;;;12.45;3.10;;;;;;;13.08;100.00;102024.31;5092411;28;20424;-51
2022/10/27 03:42:32;;;;;;;8.23;3.28;;;;;;;13.07;100.00;102029.75;5094305;28;20071;-53
2022/10/27 03:44:57;;;;;;;8.30;3.50;;;;;;;13.04;100.00;102028.16;5095884;28;20024;-53
2022/10/27 03:47:23;;;;;;;6.22;2.70;;;;;;;13.06;100.00;102030.75;5086834;28;20028;-54
2022/10/27 03:49:48;;;;;;;5.10;2.90;;;;;;;13.03;100.00;102028.28;5094999;28;20067;-53
2022/10/27 03:52:13;;;;;;;10.48;2.92;;;;;;;13.02;100.00;102023.88;5095307;28;20031;-49
2022/10/27 03:54:39;;;;;;;7.40;3.13;;;;;;;13.00;100.00;102016.00;5094969;28;20063;-51
2022/10/27 03:57:04;;;;;;;7.70;3.08;;;;;;;12.99;100.00;102019.63;5083063;28;20041;-53
2022/10/27 03:59:29;;;;;;;11.85;3.65;;;;;;;12.98;100.00;102022.41;5094772;28;20042;-53
2022/10/27 04:01:55;;;;;;;5.75;3.00;;;;;;;12.96;100.00;102019.84;5094983;28;20035;-53
2022/10/27 04:04:20;;;;;;;6.50;2.85;;;;;;;12.93;100.00;102017.38;5088935;28;20389;-52
2022/10/27 04:06:45;;;;;;;5.23;2.93;;;;;;;12.93;100.00;102023.56;5087981;28;20036;-54
2022/10/27 04:09:11;;;;;;;7.70;2.70;;;;;;;12.92;100.00;102023.66;5093525;28;20342;-53
2022/10/27 04:11:36;;;;;;;8.35;2.67;;;;;;;12.91;100.00;102024.63;5094883;28;20660;-51
2022/10/27 04:14:01;;;;;;;7.80;3.10;;;;;;;12.91;100.00;102033.47;5094753;28;20024;-53
2022/10/27 04:16:26;;;;;;;6.43;2.72;;;;;;;12.90;100.00;102038.91;5085919;28;20344;-53
2022/10/27 04:18:52;;;;;;;6.90;2.60;;;;;;;12.88;100.00;102033.69;5093230;28;20466;-53
2022/10/27 04:21:17;;;;;;;7.90;3.38;;;;;;;12.86;100.00;102040.94;5094807;28;20024;-52
2022/10/27 04:23:43;;;;;;;8.07;2.45;;;;;;;12.86;100.00;102042.75;5094483;28;20027;-51
2022/10/27 04:26:09;;;;;;;6.88;2.65;;;;;;;12.84;100.00;102044.66;5093036;28;20028;-51
2022/10/27 04:28:34;;;;;;;5.00;2.47;;;;;;;12.82;100.00;102035.91;5093767;28;20027;-52
2022/10/27 04:30:59;;;;;;;8.20;3.00;;;;;;;12.79;100.00;102042.31;5095115;28;20028;-52
2022/10/27 04:33:24;;;;;;;9.43;3.08;;;;;;;12.78;100.00;102053.91;5084628;28;20077;-54
2022/10/27 04:35:50;;;;;;;4.57;2.75;;;;;;;12.76;100.00;102043.34;5094609;28;20036;-54
2022/10/27 04:38:15;;;;;;;6.18;2.67;;;;;;;12.74;100.00;102039.09;5094272;28;20040;-51
2022/10/27 04:40:40;;;;;;;6.25;2.80;;;;;;;12.76;100.00;102047.84;5083931;28;20074;-53
2022/10/27 04:43:06;;;;;;;8.70;3.03;;;;;;;12.76;100.00;102042.50;5091818;28;20028;-52
2022/10/27 04:45:32;;;;;;;6.93;3.00;;;;;;;12.75;100.00;102048.78;5087257;28;20032;-53
2022/10/27 04:47:58;;;;;;;9.45;3.55;;;;;;;12.74;100.00;102047.94;5094087;28;20036;-52
2022/10/27 04:50:23;;;;;;;7.07;3.25;;;;;;;12.72;100.00;102049.88;5091875;28;20051;-52
2022/10/27 04:53:00;;;;;;;10.02;3.00;;;;;;;12.72;100.00;102049.88;5090591;28;20039;-53
2022/10/27 04:55:27;;;;;;;11.02;2.92;;;;;;;12.69;100.00;102044.72;5094416;28;20111;-53
2022/10/27 04:57:52;;;;;;;8.98;3.63;;;;;;;12.70;100.00;102046.41;5086858;28;20036;-53
2022/10/27 05:00:18;;;;;;;7.38;2.90;;;;;;;12.69;100.00;102052.72;5090911;28;20029;-54
2022/10/27 05:02:43;;;;;;;5.93;3.00;;;;;;;12.69;100.00;102052.72;5092764;28;20069;-53
2022/10/27 05:05:09;;;;;;;11.38;3.50;;;;;;;12.69;100.00;102047.41;5093813;28;20024;-53
2022/10/27 05:07:34;;;;;;;8.35;4.18;;;;;;;12.69;100.00;102050.06;5092432;28;20535;-53
2022/10/27 05:09:59;;;;;;;7.75;3.47;;;;;;;12.70;100.00;102046.41;5086288;28;20487;-53
2022/10/27 05:12:24;;;;;;;11.18;3.33;;;;;;;12.71;100.00;102041.97;5092687;28;20043;-55
2022/10/27 05:14:50;;;;;;;7.22;2.92;;;;;;;12.71;100.00;102044.63;5093782;28;20354;-54
2022/10/27 05:17:15;;;;;;;7.90;3.87;;;;;;;12.72;100.00;102044.53;5082658;28;20042;-54
2022/10/27 05:19:40;;;;;;;10.38;3.47;;;;;;;12.74;100.00;102045.28;5093634;28;20339;-52
2022/10/27 05:22:05;;;;;;;10.55;3.80;;;;;;;12.75;100.00;102046.97;5087785;28;20029;-52
2022/10/27 05:24:31;;;;;;;7.40;3.53;;;;;;;12.74;100.00;102037.28;5085225;28;20123;-53
2022/10/27 05:26:56;;;;;;;8.45;3.95;;;;;;;12.75;100.00;102038.13;5093006;28;20286;-49
2022/10/27 05:29:21;;;;;;;10.30;3.53;;;;;;;12.74;100.00;102042.63;5091387;28;20036;-52
2022/10/27 05:31:47;;;;;;;11.95;4.25;;;;;;;12.77;100.00;102039.75;5090937;28;20063;-51
2022/10/27 05:34:12;;;;;;;9.93;3.60;;;;;;;12.78;100.00;102038.78;5093595;28;20110;-52
2022/10/27 05:36:37;;;;;;;8.55;3.80;;;;;;;12.77;100.00;102036.19;5088151;28;20025;-52
2022/10/27 05:39:02;;;;;;;8.00;3.67;;;;;;;12.77;100.00;102039.75;5084880;28;20447;-53
2022/10/27 05:41:28;;;;;;;8.77;3.38;;;;;;;12.77;100.00;102031.75;5093125;28;20108;-53
2022/10/27 05:43:53;;;;;;;8.85;3.45;;;;;;;12.78;100.00;102037.94;5093328;28;20513;-51
2022/10/27 05:46:18;;;;;;;9.18;3.83;;;;;;;12.76;100.00;102027.38;5091984;28;20038;-54
2022/10/27 05:48:43;;;;;;;11.43;3.95;;;;;;;12.78;100.00;102028.09;5092981;28;20097;-54
2022/10/27 05:51:09;;;;;;;11.57;4.25;;;;;;;12.77;100.00;102026.41;5093173;28;20058;-50
2022/10/27 05:53:34;;;;;;;10.88;3.63;;;;;;;12.78;100.00;102020.09;5092388;28;20060;-51
2022/10/27 05:55:59;;;;;;;9.43;3.93;;;;;;;12.79;100.00;102023.66;5092756;28;20118;-51
2022/10/27 05:58:25;;;;;;;12.70;3.72;;;;;;;12.78;100.00;102022.78;5092947;28;20308;-55
2022/10/27 06:00:50;;;;;;;9.20;3.40;;;;;;;12.80;100.00;102020.00;5081868;28;20393;-54
2022/10/27 06:03:20;;;;;;;7.70;3.15;;;;;;;12.81;100.00;102023.56;5092667;28;20024;-53
2022/10/27 06:05:45;;;;;;;9.57;3.47;;;;;;;12.82;100.00;102025.25;5083268;28;20110;-52
2022/10/27 06:08:10;;;;;;;9.18;3.38;;;;;;;12.84;100.00;102025.97;5077697;28;20443;-54
2022/10/27 06:10:36;;;;;;;7.13;3.15;;;;;;;12.84;100.00;102025.97;5085209;28;20032;-51
2022/10/27 06:13:05;;;;;;;5.38;3.08;;;;;;;12.85;100.00;102025.88;5091196;28;20097;-51
2022/10/27 06:15:32;;;;;;;6.88;3.28;;;;;;;12.86;100.00;102024.94;5083367;28;20032;-53
2022/10/27 06:17:57;;;;;;;7.18;3.33;;;;;;;12.87;100.00;102017.78;5081051;28;20028;-51
2022/10/27 06:20:23;;;;;;;6.20;3.10;;;;;;;12.87;100.00;102017.78;5089623;28;20108;-49
2022/10/27 06:22:48;;;;;;;9.85;3.55;;;;;;;12.87;100.00;102015.13;5083024;28;20406;-49
2022/10/27 06:25:13;;;;;;;8.85;3.28;;;;;;;12.88;100.00;102015.00;5073664;28;20032;-52
2022/10/27 06:27:39;;;;;;;6.65;2.70;;;;;;;12.92;99.84;102015.66;5071285;28;20036;-49
2022/10/27 06:30:05;;;;;;;8.45;2.90;;;;;;;12.95;99.14;102018.13;5075940;28;20028;-51
2022/10/27 06:32:30;;;;;;;8.32;3.00;;;;;;;13.00;98.66;102020.47;5075856;28;20032;-49
2022/10/27 06:34:55;;;;;;;5.03;2.70;;;;;;;13.01;98.36;102009.72;5077876;28;20060;-51
2022/10/27 06:37:20;;;;;;;6.88;2.65;;;;;;;13.03;98.14;102012.28;5077100;28;20048;-52
2022/10/27 06:39:46;;;;;;;6.32;2.63;;;;;;;13.03;98.15;102004.28;5074561;28;20016;-48
2022/10/27 06:42:11;;;;;;;7.28;2.97;;;;;;;13.02;97.96;102006.06;5076656;28;20036;-49
2022/10/27 06:44:37;;;;;;;7.70;2.65;;;;;;;13.04;97.27;102009.50;5074202;28;20070;-52
2022/10/27 06:47:02;;;;;;;6.13;2.28;;;;;;;13.06;96.64;102002.25;5080960;28;20036;-51
2022/10/27 06:49:27;;;;;;;4.85;1.95;;;;;;;13.13;95.83;102000.84;5088670;28;20343;-51
2022/10/27 06:51:54;;;;;;;3.73;2.40;;;;;;;13.17;95.34;102004.16;5086545;28;20027;-54
2022/10/27 06:54:19;;;;;;;6.50;2.30;;;;;;;13.20;94.83;101995.09;5090325;28;20272;-49
2022/10/27 06:56:44;;;;;;;9.55;2.35;;;;;;;13.24;94.69;101989.44;5090746;28;20103;-50
2022/10/27 06:59:10;;;;;;;4.97;2.80;;;;;;;13.24;94.88;101984.13;5090903;28;20958;-51
2022/10/27 07:01:35;;;;;;;7.15;2.60;;;;;;;13.25;94.77;101991.13;5088594;28;20790;-49
2022/10/27 07:04:00;;;;;;;6.20;2.20;;;;;;;13.27;94.62;101993.69;5073363;28;20036;-49
2022/10/27 07:06:26;;;;;;;8.45;2.47;;;;;;;13.28;94.81;101992.75;5074696;28;20332;-51
2022/10/27 07:08:51;;;;;;;5.32;2.50;;;;;;;13.27;94.79;101999.03;5075370;28;20020;-52
2022/10/27 07:11:17;;;;;;;5.63;2.92;;;;;;;13.25;95.39;102004.47;5073895;28;20035;-49
2022/10/27 07:13:42;;;;;;;7.68;2.70;;;;;;;13.27;94.91;102001.72;5076790;28;20094;-49
2022/10/27 07:16:09;;;;;;;8.63;2.88;;;;;;;13.26;94.80;102010.69;5079572;28;20095;-49
2022/10/27 07:18:36;;;;;;;7.45;2.85;;;;;;;13.28;94.84;102006.09;5078259;28;20028;-48
2022/10/27 07:21:01;;;;;;;7.05;2.92;;;;;;;13.28;94.77;102009.59;5078320;28;20035;-49
2022/10/27 07:23:26;;;;;;;6.63;3.10;;;;;;;13.30;94.55;102010.34;5043111;28;20052;-52
2022/10/27 07:25:52;;;;;;;8.32;2.90;;;;;;;13.30;94.69;102001.50;5078893;28;20027;-50
2022/10/27 07:28:17;;;;;;;4.60;3.05;;;;;;;13.31;94.88;102001.41;5076903;28;20024;-53
2022/10/27 07:30:43;;;;;;;7.70;3.20;;;;;;;13.32;94.52;101991.59;5079151;28;20031;-52
2022/10/27 07:33:10;;;;;;;6.85;3.30;;;;;;;13.33;94.33;101991.50;5082763;28;20085;-50
2022/10/27 07:35:35;;;;;;;7.85;3.35;;;;;;;13.33;94.75;101990.66;5077481;28;20103;-50
2022/10/27 07:38:01;;;;;;;8.75;2.97;;;;;;;13.37;94.28;101997.47;5077142;28;20107;-52
2022/10/27 07:40:26;;;;;;;4.53;2.72;;;;;;;13.42;94.24;102000.69;5084055;28;20034;-51
2022/10/27 07:42:55;;;;;;;3.92;3.00;;;;;;;13.46;94.05;101998.66;5092272;28;20416;-50
2022/10/27 07:45:22;;;;;;;5.50;2.65;;;;;;;13.50;93.98;102000.97;5095390;28;21059;-50
2022/10/27 07:47:52;;;;;;;13.35;3.47;;;;;;;13.60;93.23;102005.69;5095824;28;20039;-51
2022/10/27 07:50:20;;;;;;;7.93;2.70;;;;;;;13.66;92.72;102000.75;5094558;28;20044;-51
2022/10/27 07:52:51;;;;;;;5.35;2.40;;;;;;;13.74;92.08;102015.38;5094751;28;20510;-51
2022/10/27 07:55:18;;;;;;;6.95;2.60;;;;;;;13.85;91.51;102010.97;5085786;28;20038;-50
2022/10/27 07:57:44;;;;;;;8.43;3.25;;;;;;;13.90;91.54;102013.31;5093718;28;20557;-49
2022/10/27 08:00:12;;;;;;;8.25;2.55;;;;;;;13.97;90.79;102011.03;5094975;28;20115;-48
2022/10/27 08:02:38;;;;;;;6.05;2.45;;;;;;;14.03;90.33;102003.44;5087599;28;20551;-49
2022/10/27 08:05:04;;;;;;;5.45;2.42;;;;;;;14.09;89.13;102001.28;5094801;28;20028;-49
2022/10/27 08:07:29;;;;;;;7.65;2.35;;;;;;;14.11;89.32;101997.56;5076327;28;20111;-50
2022/10/27 08:09:55;;;;;;;5.50;1.90;;;;;;;14.16;89.28;102000.72;5095133;28;20059;-49
2022/10/27 08:12:20;;;;;;;6.75;2.33;;;;;;;14.20;88.28;102006.69;5089103;28;20042;-49
2022/10/27 08:14:45;;;;;;;3.78;1.90;;;;;;;14.24;88.83;102009.03;5095192;28;20473;-48
2022/10/27 08:17:12;;;;;;;6.60;2.42;;;;;;;14.32;88.67;101986.22;5094413;28;20538;-51
2022/10/27 08:19:38;;;;;;;5.18;2.30;;;;;;;14.38;88.20;101980.44;5093373;28;20510;-48
2022/10/27 08:22:03;;;;;;;9.10;2.35;;;;;;;14.42;88.05;101977.44;5094449;28;20067;-48
2022/10/27 08:24:28;;;;;;;7.93;2.23;;;;;;;14.51;87.40;101983.06;5094558;28;20028;-49
2022/10/27 08:26:53;;;;;;;4.50;1.87;;;;;;;14.60;86.70;101987.72;5091100;28;20640;-49
2022/10/27 08:29:19;;;;;;;5.83;2.00;;;;;;;14.70;85.71;101988.72;5076594;28;20309;-50
2022/10/27 08:31:44;;;;;;;12.65;2.10;;;;;;;14.81;85.57;101993.28;5092528;28;20298;-51
2022/10/27 08:34:09;;;;;;;6.07;1.47;;;;;;;14.90;84.06;101991.72;5094225;28;20044;-50
2022/10/27 08:36:38;;;;;;;6.33;1.70;;;;;;;14.99;84.43;101991.84;5091310;28;20293;-49
2022/10/27 08:39:08;;;;;;;4.45;1.90;;;;;;;15.08;83.45;101987.63;5094347;28;20609;-50
2022/10/27 08:41:44;;;;;;;4.68;1.90;;;;;;;15.17;84.63;101983.34;5093800;28;20020;-49
2022/10/27 08:44:13;;;;;;;5.45;1.65;;;;;;;15.25;83.13;101994.31;5085443;28;20043;-51
2022/10/27 08:46:49;;;;;;;8.15;1.65;;;;;;;15.35;81.82;101978.41;5094253;28;20051;-51
2022/10/27 08:49:31;;;;;;;2.97;1.42;;;;;;;15.42;82.30;101984.13;5093858;28;20070;-52
2022/10/27 08:52:28;;;;;;;4.20;1.50;;;;;;;15.52;82.15;101977.94;5094261;28;20020;-50
2022/10/27 08:55:01;;;;;;;7.20;1.85;;;;;;;15.64;78.69;101964.53;5065733;28;20036;-51
2022/10/27 08:57:32;;;;;;;6.72;1.33;;;;;;;15.72;78.19;101968.28;5090266;28;20059;-50
2022/10/27 08:59:58;;;;;;;3.13;1.40;;;;;;;15.83;79.05;101955.88;5087809;28;20032;-53
2022/10/27 09:02:50;;;;;;;5.03;1.50;;;;;;;15.93;79.51;101948.78;5090792;28;20031;-51
2022/10/27 09:05:30;;;;;;;4.15;1.70;;;;;;;16.03;78.86;101951.56;5093864;28;20027;-52
2022/10/27 09:08:28;;;;;;;4.00;2.33;;;;;;;16.11;78.22;101938.41;5069391;28;20478;-49
2022/10/27 09:11:05;;;;;;;4.40;1.65;;;;;;;16.22;77.21;101951.75;5083515;28;20127;-54
2022/10/27 09:13:49;;;;;;;3.72;1.33;;;;;;;16.34;75.89;101941.00;5093725;28;20032;-49
2022/10/27 09:16:32;;;;;;;3.58;1.45;;;;;;;16.44;76.30;101948.13;5093783;28;20024;-51
2022/10/27 09:19:02;;;;;;;3.22;1.27;;;;;;;16.54;75.72;101950.91;5080937;28;20478;-50
2022/10/27 09:21:30;;;;;;;4.28;1.20;;;;;;;16.62;74.11;101951.09;5093477;28;20032;-52
2022/10/27 09:24:02;;;;;;;5.32;1.27;;;;;;;16.70;74.61;101945.06;5081029;28;20058;-52
2022/10/27 09:26:31;;;;;;;3.72;1.25;;;;;;;16.79;74.02;101952.34;5085844;28;20040;-51
2022/10/27 09:29:00;;;;;;;3.13;1.30;;;;;;;16.87;75.07;101940.13;5093384;28;20032;-50
2022/10/27 09:31:43;;;;;;;3.88;1.60;;;;;;;16.93;75.16;101931.53;5092892;28;20028;-53
2022/10/27 09:34:14;;;;;;;4.40;1.50;;;;;;;17.00;74.07;101927.34;5085307;28;20032;-53
2022/10/27 09:36:40;;;;;;;7.85;1.77;;;;;;;17.06;72.38;101928.66;5093265;28;20024;-51
2022/10/27 09:39:05;;;;;;;2.85;1.35;;;;;;;17.13;74.20;101927.13;5092737;28;20024;-51
2022/10/27 09:41:31;;;;;;;4.03;1.20;;;;;;;17.20;72.67;101926.47;5081857;28;20024;-50
2022/10/27 09:43:58;;;;;;;3.25;1.30;;;;;;;17.27;72.89;101920.53;5093392;28;20024;-53
2022/10/27 09:46:27;;;;;;;4.45;1.40;;;;;;;17.32;72.07;101911.09;5088526;28;20374;-51
2022/10/27 09:48:57;;;;;;;3.72;1.25;;;;;;;17.41;71.97;101913.97;5092922;28;20040;-50
2022/10/27 09:51:25;;;;;;;5.45;1.38;;;;;;;17.54;71.26;101909.19;5085672;28;20028;-49
2022/10/27 09:53:52;;;;;;;3.08;1.42;;;;;;;17.69;70.81;101921.25;5091753;28;20028;-51
2022/10/27 09:56:18;;;;;;;4.28;1.50;;;;;;;17.84;70.68;101919.03;5087642;28;20374;-52
2022/10/27 09:58:59;;;;;;;4.55;1.42;;;;;;;17.98;71.37;101925.00;5090363;28;20027;-52
2022/10/27 10:01:27;;;;;;;4.93;1.33;;;;;;;18.13;71.38;101920.91;5088525;28;20028;-53
2022/10/27 10:04:03;;;;;;;3.38;1.27;;;;;;;18.27;69.90;101923.19;5090329;28;20020;-50
2022/10/27 10:06:34;;;;;;;3.00;1.33;;;;;;;18.42;68.80;101914.69;5088282;28;20152;-51
2022/10/27 10:09:23;;;;;;;4.68;1.58;;;;;;;18.50;69.99;101909.44;5091087;28;20119;-50
2022/10/27 10:11:49;;;;;;;2.75;1.10;;;;;;;18.62;66.96;101904.75;5084786;28;20111;-50
2022/10/27 10:14:21;;;;;;;6.45;1.60;;;;;;;18.74;67.45;101890.13;5074712;28;20017;-49
2022/10/27 10:16:46;;;;;;;7.25;1.83;;;;;;;18.82;66.12;101897.50;5077197;28;20024;-51
2022/10/27 10:19:17;;;;;;;5.15;1.23;;;;;;;18.90;65.87;101891.38;5074409;28;20619;-50
2022/10/27 10:21:42;;;;;;;4.82;1.52;;;;;;;18.96;66.87;101896.19;5072944;28;20556;-52
2022/10/27 10:24:15;;;;;;;5.97;1.30;;;;;;;19.00;66.62;101897.59;5076120;28;20079;-51
2022/10/27 10:26:45;;;;;;;3.53;1.15;;;;;;;19.03;66.07;101895.47;5075535;28;20111;-49
2022/10/27 10:29:27;;;;;;;2.63;1.20;;;;;;;19.02;66.53;101885.69;5073348;28;20111;-51
2022/10/27 10:32:07;;;;;;;5.82;2.13;;;;;;;19.06;66.84;101897.00;5076075;28;20025;-50
2022/10/27 10:34:33;;;;;;;5.75;1.60;;;;;;;19.10;65.77;101894.84;5071302;28;20113;-51
2022/10/27 10:36:58;;;;;;;7.72;1.40;;;;;;;19.14;65.97;101896.28;5073486;28;20039;-50
2022/10/27 10:39:26;;;;;;;4.22;1.23;;;;;;;19.15;64.37;101882.66;5074257;28;20044;-53
2022/10/27 10:42:14;;;;;;;3.67;1.30;;;;;;;19.18;66.99;101886.88;5077118;28;20032;-49
2022/10/27 10:44:40;;;;;;;4.68;1.30;;;;;;;19.19;64.48;101870.59;5079316;28;20032;-49
2022/10/27 10:47:18;;;;;;;4.88;1.25;;;;;;;19.23;65.71;101872.00;5088984;28;20020;-51
2022/10/27 10:49:53;;;;;;;7.10;1.63;;;;;;;19.29;65.05;101877.78;5085859;28;20036;-51
2022/10/27 10:52:22;;;;;;;3.28;1.40;;;;;;;19.35;65.37;101869.94;5088328;28;20461;-51
2022/10/27 10:54:48;;;;;;;6.43;1.55;;;;;;;19.41;64.96;101863.09;5083505;28;20024;-49
2022/10/27 10:57:42;;;;;;;7.15;1.50;;;;;;;19.44;66.74;101864.66;5086366;28;20035;-51
2022/10/27 11:00:14;;;;;;;3.90;1.67;;;;;;;19.41;65.35;101868.47;5082347;28;20093;-51
2022/10/27 11:02:40;;;;;;;4.72;1.25;;;;;;;19.39;64.44;101871.31;5085361;28;20051;-51
2022/10/27 11:05:18;;;;;;;4.72;1.10;;;;;;;19.41;64.61;101860.41;5088299;28;20016;-50
2022/10/27 11:07:46;;;;;;;4.53;1.08;;;;;;;19.39;64.58;101874.03;5082487;28;20070;-48
2022/10/27 11:10:14;;;;;;;4.60;1.60;;;;;;;19.42;65.49;101870.19;5085208;28;20024;-48
2022/10/27 11:12:58;;;;;;;5.10;1.33;;;;;;;19.44;65.53;101873.56;5079551;28;20043;-49
2022/10/27 11:15:47;;;;;;;7.28;1.60;;;;;;;19.49;66.84;101867.75;5086668;28;20107;-50
2022/10/27 11:18:29;;;;;;;6.28;1.65;;;;;;;19.46;66.57;101859.94;5088251;28;20024;-52
2022/10/27 11:21:16;;;;;;;4.03;1.52;;;;;;;19.51;66.85;101863.03;5086460;28;20019;-51
2022/10/27 11:23:47;;;;;;;3.80;1.42;;;;;;;19.46;65.07;101859.94;5087505;28;20063;-49
2022/10/27 11:26:15;;;;;;;3.47;1.50;;;;;;;19.46;65.68;101863.50;5088414;28;20020;-50
2022/10/27 11:28:40;;;;;;;7.50;1.63;;;;;;;19.48;66.38;101866.88;5087974;28;20043;-48